Terminal Aerodrome Forecast
Issued by NWS

Home | Current Version | Previous Version | Text Only | Print | Product List | Glossary On
Versions: 1 2 3 4 5 6 7 8 9 10 11 12
000
FTUS41 KPHI 281700
TAFPNE
TAF
KPNE 281740Z 2818/2918 28005KT P6SM SCT060 OVC100
     FM290000 32005KT P6SM BKN050
     FM291000 35007KT P6SM OVC150=

USA.gov is the U.S. government's official web portal to all federal, state and local government web resources and services.